createdAt,value
2018-10-19T00:00:25.301Z,10.57
2018-10-19T00:02:55.704Z,7.70
2018-10-19T00:05:25.595Z,7.90
2018-10-19T00:07:55.789Z,4.20
2018-10-19T00:10:25.732Z,5.97
2018-10-19T00:12:55.680Z,8.40
2018-10-19T00:15:25.566Z,14.10
2018-10-19T00:17:55.437Z,6.00
2018-10-19T00:20:25.366Z,5.90
2018-10-19T00:22:55.341Z,16.57
2018-10-19T00:25:25.247Z,5.37
2018-10-19T00:27:56.387Z,8.67
2018-10-19T00:30:26.793Z,6.00
2018-10-19T00:32:56.741Z,6.47
2018-10-19T00:35:26.804Z,9.53
2018-10-19T00:37:56.796Z,6.63
2018-10-19T00:40:26.712Z,5.87
2018-10-19T00:42:56.608Z,11.07
2018-10-19T00:45:31.813Z,7.80
2018-10-19T00:48:13.597Z,2.03
2018-10-19T00:50:43.854Z,9.73
2018-10-19T00:53:14.088Z,6.37
2018-10-19T00:55:44.565Z,9.93
2018-10-19T00:58:14.644Z,3.33
2018-10-19T01:00:44.575Z,4.50
2018-10-19T01:03:14.643Z,10.83
2018-10-19T01:05:44.632Z,8.10
2018-10-19T01:08:14.536Z,8.53
2018-10-19T01:10:44.433Z,9.83
2018-10-19T01:13:14.549Z,15.90
2018-10-19T01:15:44.518Z,11.50
2018-10-19T01:18:14.396Z,4.97
2018-10-19T01:20:44.321Z,10.77
2018-10-19T01:23:14.335Z,14.33
2018-10-19T01:25:44.133Z,4.33
2018-10-19T01:28:14.281Z,6.03
2018-10-19T01:30:44.246Z,4.00
2018-10-19T01:33:14.208Z,9.20
2018-10-19T01:35:44.140Z,8.07
2018-10-19T01:38:14.029Z,7.00
2018-10-19T01:40:43.901Z,8.13
2018-10-19T01:43:20.212Z,19.67
2018-10-19T01:45:56.309Z,17.10
2018-10-19T01:48:27.092Z,4.57
2018-10-19T01:50:57.743Z,9.70
2018-10-19T01:53:27.880Z,13.70
2018-10-19T01:55:57.781Z,4.53
2018-10-19T01:58:27.964Z,12.10
2018-10-19T02:00:57.861Z,10.40
2018-10-19T02:06:11.566Z,7.60
2018-10-19T02:08:41.513Z,5.90
2018-10-19T02:11:11.479Z,13.83
2018-10-19T02:13:41.357Z,5.23
2018-10-19T02:16:11.690Z,12.03
2018-10-19T02:18:41.608Z,10.00
2018-10-19T02:21:11.580Z,14.25
2018-10-19T02:23:41.526Z,13.60
2018-10-19T02:26:11.540Z,12.27
2018-10-19T02:28:41.764Z,16.20
2018-10-19T02:31:11.809Z,8.30
2018-10-19T02:33:41.937Z,4.57
2018-10-19T02:36:11.884Z,12.77
2018-10-19T02:38:41.901Z,8.47
2018-10-19T02:41:11.893Z,6.73
2018-10-19T02:43:41.725Z,6.67
2018-10-19T02:46:11.660Z,10.85
2018-10-19T02:48:41.602Z,9.60
2018-10-19T02:51:11.612Z,8.23
2018-10-19T02:53:41.481Z,8.88
2018-10-19T02:56:11.673Z,6.08
2018-10-19T02:58:41.566Z,11.43
2018-10-19T03:01:11.536Z,7.05
2018-10-19T03:03:41.460Z,18.05
2018-10-19T03:06:11.536Z,11.33
2018-10-19T03:08:41.492Z,9.75
2018-10-19T03:11:11.591Z,5.12
2018-10-19T03:13:41.446Z,9.93
2018-10-19T03:16:11.618Z,6.35
2018-10-19T03:18:41.752Z,7.28
2018-10-19T03:21:12.431Z,6.83
2018-10-19T03:23:42.337Z,9.68
2018-10-19T03:26:12.251Z,7.65
2018-10-19T03:28:42.165Z,10.60
2018-10-19T03:31:12.083Z,10.13
2018-10-19T03:33:41.995Z,15.90
2018-10-19T03:36:11.932Z,12.80
2018-10-19T03:38:41.897Z,6.35
2018-10-19T03:41:11.918Z,7.58
2018-10-19T03:43:41.765Z,17.00
2018-10-19T03:46:11.742Z,8.30
2018-10-19T03:48:42.726Z,9.75
2018-10-19T03:51:12.681Z,12.28
2018-10-19T03:53:42.605Z,18.55
2018-10-19T03:56:12.548Z,9.90
2018-10-19T03:58:42.433Z,8.48
2018-10-19T04:01:12.325Z,16.02
2018-10-19T04:03:42.308Z,10.72
2018-10-19T04:06:12.153Z,19.12
2018-10-19T04:08:42.033Z,4.92
2018-10-19T04:11:11.995Z,8.95
2018-10-19T04:13:41.992Z,7.83
2018-10-19T04:16:12.501Z,8.65
2018-10-19T04:18:42.869Z,9.95
2018-10-19T04:21:12.842Z,10.28
2018-10-19T04:23:42.737Z,7.95
2018-10-19T04:26:12.719Z,19.87
2018-10-19T04:28:42.662Z,9.40
2018-10-19T04:31:12.613Z,16.85
2018-10-19T04:33:42.499Z,13.43
2018-10-19T04:36:12.521Z,13.43
2018-10-19T04:38:42.586Z,8.53
2018-10-19T04:41:12.636Z,10.80
2018-10-19T04:43:42.410Z,9.00
2018-10-19T04:46:12.346Z,7.80
2018-10-19T04:48:42.205Z,6.00
2018-10-19T04:51:12.210Z,10.48
2018-10-19T04:53:42.122Z,14.90
2018-10-19T04:56:12.009Z,25.77
2018-10-19T04:58:41.897Z,8.10
2018-10-19T05:01:11.825Z,15.48
2018-10-19T05:03:41.752Z,11.97
2018-10-19T05:06:11.748Z,9.73
2018-10-19T05:08:41.812Z,13.38
2018-10-19T05:11:11.906Z,8.45
2018-10-19T05:13:41.868Z,16.07
2018-10-19T05:16:11.776Z,13.30
2018-10-19T05:18:41.690Z,6.33
2018-10-19T05:21:11.610Z,13.60
2018-10-19T05:23:41.521Z,9.10
2018-10-19T05:26:11.546Z,8.83
2018-10-19T05:28:41.709Z,7.97
2018-10-19T05:31:11.881Z,22.00
2018-10-19T05:33:41.768Z,8.45
2018-10-19T05:36:35.387Z,4.03
2018-10-19T05:39:08.003Z,10.40
2018-10-19T05:41:37.953Z,17.48
2018-10-19T05:44:07.909Z,11.75
2018-10-19T05:46:37.830Z,8.78
2018-10-19T05:49:07.774Z,16.75
2018-10-19T05:51:37.706Z,16.05
2018-10-19T05:54:07.666Z,17.70
2018-10-19T05:56:37.557Z,10.80
2018-10-19T05:59:07.499Z,27.42
2018-10-19T06:01:37.665Z,9.08
2018-10-19T06:04:07.835Z,11.78
2018-10-19T06:06:38.261Z,8.65
2018-10-19T06:09:09.973Z,5.50
2018-10-19T06:11:40.670Z,9.63
2018-10-19T06:14:10.966Z,13.55
2018-10-19T06:16:40.889Z,9.43
2018-10-19T06:19:11.205Z,3.98
2018-10-19T06:21:41.112Z,10.20
2018-10-19T06:24:11.269Z,6.03
2018-10-19T06:26:41.196Z,10.90
2018-10-19T06:29:11.167Z,11.25
2018-10-19T06:31:41.301Z,15.60
2018-10-19T06:34:11.253Z,25.95
2018-10-19T06:36:41.190Z,7.08
2018-10-19T06:39:12.010Z,7.10
2018-10-19T06:41:42.540Z,18.17
2018-10-19T06:44:12.933Z,15.00
2018-10-19T06:46:42.927Z,17.55
2018-10-19T06:49:12.872Z,8.18
2018-10-19T06:51:42.759Z,9.40
2018-10-19T06:54:12.879Z,13.85
2018-10-19T06:56:43.086Z,10.08
2018-10-19T06:59:13.159Z,18.98
2018-10-19T07:01:42.937Z,12.85
2018-10-19T07:04:13.127Z,5.70
2018-10-19T07:06:43.185Z,4.25
2018-10-19T07:09:13.137Z,16.87
2018-10-19T07:11:43.037Z,21.37
2018-10-19T07:14:13.222Z,16.75
2018-10-19T07:16:43.110Z,8.63
2018-10-19T07:19:13.111Z,6.12
2018-10-19T07:21:43.059Z,17.02
2018-10-19T07:24:13.009Z,7.12
2018-10-19T07:26:42.933Z,10.13
2018-10-19T07:29:12.978Z,10.43
2018-10-19T07:31:42.876Z,12.13
2018-10-19T07:34:12.799Z,10.18
2018-10-19T07:36:42.761Z,10.03
2018-10-19T07:39:12.674Z,23.40
2018-10-19T07:41:42.612Z,12.63
2018-10-19T07:44:13.015Z,23.73
2018-10-19T07:46:42.846Z,11.75
2018-10-19T07:49:12.797Z,8.28
2018-10-19T07:51:42.902Z,14.87
2018-10-19T07:54:12.913Z,17.80
2018-10-19T07:56:43.108Z,13.98
2018-10-19T07:59:13.091Z,8.73
2018-10-19T08:01:42.999Z,8.60
2018-10-19T08:04:12.964Z,14.10
2018-10-19T08:06:43.609Z,13.55
2018-10-19T08:09:13.612Z,9.33
2018-10-19T08:11:43.526Z,18.12
2018-10-19T08:14:13.516Z,11.33
2018-10-19T08:16:43.801Z,12.75
2018-10-19T08:19:13.872Z,10.98
2018-10-19T08:21:43.777Z,11.33
2018-10-19T08:24:13.940Z,6.78
2018-10-19T08:26:43.848Z,9.63
2018-10-19T08:29:13.856Z,15.83
2018-10-19T08:31:43.723Z,8.63
2018-10-19T08:34:13.781Z,13.55
2018-10-19T08:36:43.868Z,14.18
2018-10-19T08:39:13.813Z,5.45
2018-10-19T08:41:44.027Z,5.00
2018-10-19T08:44:13.864Z,12.83
2018-10-19T08:46:43.768Z,16.87
2018-10-19T08:49:13.913Z,29.63
2018-10-19T08:51:43.738Z,6.00
2018-10-19T08:54:13.629Z,18.03
2018-10-19T08:56:43.586Z,25.10
2018-10-19T08:59:13.579Z,13.27
2018-10-19T09:01:43.450Z,18.47
2018-10-19T09:04:13.422Z,12.27
2018-10-19T09:06:43.395Z,14.93
2018-10-19T09:09:13.403Z,13.00
2018-10-19T09:11:43.348Z,14.27
2018-10-19T09:14:33.264Z,11.17
2018-10-19T09:17:03.388Z,10.73
2018-10-19T09:19:33.245Z,16.00
2018-10-19T09:22:03.669Z,13.27
2018-10-19T09:24:33.620Z,10.43
2018-10-19T09:27:03.532Z,13.67
2018-10-19T09:29:33.588Z,6.90
2018-10-19T09:32:03.396Z,11.07
2018-10-19T09:34:33.545Z,22.20
2018-10-19T09:37:03.580Z,11.17
2018-10-19T09:39:33.694Z,14.87
2018-10-19T09:42:03.716Z,11.70
2018-10-19T09:44:33.661Z,15.73
2018-10-19T09:47:03.600Z,7.47
2018-10-19T09:49:33.561Z,9.40
2018-10-19T09:52:03.510Z,14.77
2018-10-19T09:54:33.749Z,9.17
2018-10-19T09:57:03.839Z,10.40
2018-10-19T09:59:33.824Z,11.03
2018-10-19T10:02:03.798Z,16.40
2018-10-19T10:04:33.746Z,12.23
2018-10-19T10:07:03.693Z,12.27
2018-10-19T10:09:33.629Z,16.00
2018-10-19T10:12:03.557Z,8.83
2018-10-19T10:14:33.521Z,13.23
2018-10-19T10:17:03.505Z,14.93
2018-10-19T10:19:33.405Z,13.70
2018-10-19T10:22:03.375Z,11.13
2018-10-19T10:24:33.287Z,8.53
2018-10-19T10:27:03.193Z,4.43
2018-10-19T10:29:33.104Z,10.90
2018-10-19T10:32:03.177Z,12.83
2018-10-19T10:34:33.049Z,5.00
2018-10-19T10:37:03.021Z,15.20
2018-10-19T10:39:32.913Z,4.47
2018-10-19T10:42:02.817Z,5.10
2018-10-19T10:44:32.729Z,15.00
2018-10-19T10:47:02.745Z,11.33
2018-10-19T10:49:32.768Z,19.60
2018-10-19T10:52:02.707Z,9.87
2018-10-19T10:54:32.715Z,11.67
2018-10-19T10:57:09.492Z,10.53
2018-10-19T10:59:39.421Z,8.57
2018-10-19T11:02:09.326Z,7.80
2018-10-19T11:04:39.285Z,11.93
2018-10-19T11:07:09.241Z,10.17
2018-10-19T11:09:39.194Z,8.83
2018-10-19T11:12:09.090Z,7.23
2018-10-19T11:14:39.517Z,8.07
2018-10-19T11:17:09.449Z,8.70
2018-10-19T11:19:39.396Z,7.80
2018-10-19T11:22:09.899Z,15.57
2018-10-19T11:24:39.772Z,15.27
2018-10-19T11:27:09.718Z,16.33
2018-10-19T11:29:39.694Z,9.87
2018-10-19T11:32:09.618Z,6.80
2018-10-19T11:34:39.676Z,6.07
2018-10-19T11:37:09.742Z,13.60
2018-10-19T11:39:55.671Z,7.13
2018-10-19T11:42:26.118Z,7.43
2018-10-19T11:44:56.254Z,12.30
2018-10-19T11:47:26.313Z,15.00
2018-10-19T11:49:56.262Z,10.23
2018-10-19T11:52:26.210Z,13.20
2018-10-19T11:54:56.140Z,5.63
2018-10-19T11:57:26.101Z,6.83
2018-10-19T11:59:56.038Z,12.17
2018-10-19T12:02:26.034Z,6.33
2018-10-19T12:04:55.961Z,16.40
2018-10-19T12:07:25.857Z,14.33
2018-10-19T12:09:55.945Z,7.60
2018-10-19T12:12:25.852Z,7.43
2018-10-19T12:14:55.913Z,14.93
2018-10-19T12:17:25.826Z,7.43
2018-10-19T12:19:55.949Z,7.10
2018-10-19T12:22:25.936Z,8.37
2018-10-19T12:24:55.876Z,9.20
2018-10-19T12:27:25.835Z,9.27
2018-10-19T12:29:55.806Z,9.30
2018-10-19T12:32:25.779Z,9.10
2018-10-19T12:34:55.671Z,8.93
2018-10-19T12:37:25.597Z,6.47
2018-10-19T12:39:55.528Z,5.70
2018-10-19T12:42:25.630Z,7.53
2018-10-19T12:44:55.641Z,11.10
2018-10-19T12:47:36.921Z,5.17
2018-10-19T12:50:07.077Z,6.10
2018-10-19T12:52:37.148Z,4.67
2018-10-19T12:55:08.985Z,3.83
2018-10-19T12:57:38.973Z,8.03
2018-10-19T13:00:08.947Z,6.33
2018-10-19T13:02:39.145Z,4.93
2018-10-19T13:05:09.105Z,15.87
2018-10-19T13:07:39.058Z,3.50
2018-10-19T13:10:09.030Z,15.67
2018-10-19T13:12:39.218Z,12.40
2018-10-19T13:15:09.212Z,9.80
2018-10-19T13:17:39.030Z,8.10
2018-10-19T13:20:08.969Z,6.77
2018-10-19T13:22:38.913Z,4.43
2018-10-19T13:25:08.859Z,10.10
2018-10-19T13:27:38.817Z,10.33
2018-10-19T13:30:08.829Z,10.73
2018-10-19T13:32:38.705Z,6.20
2018-10-19T13:35:08.610Z,6.53
2018-10-19T13:37:38.935Z,9.07
2018-10-19T13:40:09.624Z,7.50
2018-10-19T13:42:39.605Z,8.00
2018-10-19T13:45:09.670Z,3.77
2018-10-19T13:47:39.537Z,3.67
2018-10-19T13:50:09.445Z,4.23
2018-10-19T13:52:39.364Z,6.30
2018-10-19T13:55:09.345Z,5.47
2018-10-19T13:57:39.340Z,7.50
2018-10-19T14:00:09.348Z,12.63
2018-10-19T14:02:39.489Z,10.63
2018-10-19T14:05:09.686Z,4.20
2018-10-19T14:07:39.569Z,4.73
2018-10-19T14:10:10.529Z,4.07
2018-10-19T14:12:41.008Z,6.77
2018-10-19T14:15:11.949Z,26.73
2018-10-19T14:17:42.174Z,3.73
2018-10-19T14:20:13.263Z,7.20
2018-10-19T14:22:43.179Z,9.93
2018-10-19T14:25:13.858Z,7.57
2018-10-19T14:27:44.637Z,5.60
2018-10-19T14:30:15.977Z,7.43
2018-10-19T14:32:45.922Z,3.07
2018-10-19T14:35:16.097Z,4.00
2018-10-19T14:37:46.425Z,5.50
2018-10-19T14:40:17.869Z,7.17
2018-10-19T14:42:48.112Z,3.83
2018-10-19T14:45:18.541Z,9.53
2018-10-19T14:47:48.753Z,8.67
2018-10-19T14:50:19.241Z,4.93
2018-10-19T14:52:49.172Z,23.23
2018-10-19T14:55:19.751Z,8.60
2018-10-19T14:57:49.661Z,9.47
2018-10-19T15:00:19.974Z,4.83
2018-10-19T15:02:49.925Z,13.90
2018-10-19T15:05:20.497Z,14.30
2018-10-19T15:07:51.000Z,4.50
2018-10-19T15:10:22.354Z,11.77
2018-10-19T15:12:52.181Z,8.43
2018-10-19T15:15:23.165Z,9.67
2018-10-19T15:17:53.156Z,5.40
2018-10-19T15:20:23.166Z,9.43
2018-10-19T15:22:53.289Z,9.90
2018-10-19T15:25:23.230Z,3.80
2018-10-19T15:27:53.207Z,3.43
2018-10-19T15:30:23.265Z,5.27
2018-10-19T15:32:53.207Z,6.60
2018-10-19T15:35:23.194Z,3.80
2018-10-19T15:37:53.137Z,3.17
2018-10-19T15:40:23.097Z,4.60
2018-10-19T15:42:53.379Z,6.27
2018-10-19T15:45:23.335Z,6.63
2018-10-19T15:47:53.289Z,7.10
2018-10-19T15:50:23.288Z,12.90
2018-10-19T15:52:53.212Z,2.40
2018-10-19T15:55:23.225Z,28.40
2018-10-19T15:57:53.178Z,5.90
2018-10-19T16:00:23.229Z,8.90
2018-10-19T16:02:53.063Z,2.47
2018-10-19T16:05:23.020Z,6.33
2018-10-19T16:07:53.038Z,2.10
2018-10-19T16:10:23.188Z,9.10
2018-10-19T16:12:52.975Z,4.63
2018-10-19T16:15:22.899Z,8.07
2018-10-19T16:17:52.841Z,14.30
2018-10-19T16:20:22.788Z,9.10
2018-10-19T16:22:52.834Z,9.53
2018-10-19T16:25:22.837Z,5.73
2018-10-19T16:27:53.021Z,5.23
2018-10-19T16:30:22.929Z,5.37
2018-10-19T16:32:52.912Z,9.63
2018-10-19T16:35:22.916Z,7.23
2018-10-19T16:37:52.857Z,9.30
2018-10-19T16:40:22.774Z,18.67
2018-10-19T16:42:52.754Z,17.47
2018-10-19T16:45:22.713Z,9.90
2018-10-19T16:47:52.637Z,16.83
2018-10-19T16:50:22.582Z,15.53
2018-10-19T16:52:59.287Z,7.60
2018-10-19T16:55:29.173Z,8.10
2018-10-19T16:57:59.255Z,9.57
2018-10-19T17:00:29.184Z,10.43
2018-10-19T17:02:59.165Z,10.73
2018-10-19T17:05:29.029Z,4.50
2018-10-19T17:07:58.978Z,15.03
2018-10-19T17:10:28.969Z,4.40
2018-10-19T17:12:58.938Z,8.57
2018-10-19T17:15:28.883Z,9.90
2018-10-19T17:17:58.894Z,11.10
2018-10-19T17:20:29.230Z,8.40
2018-10-19T17:22:59.165Z,7.60
2018-10-19T17:25:29.170Z,11.77
2018-10-19T17:27:59.101Z,11.33
2018-10-19T17:30:29.100Z,11.83
2018-10-19T17:32:59.077Z,12.90
2018-10-19T17:35:28.941Z,18.17
2018-10-19T17:37:58.965Z,11.00
2018-10-19T17:40:28.876Z,7.10
2018-10-19T17:42:58.865Z,7.27
2018-10-19T17:45:29.130Z,11.10
2018-10-19T17:47:59.134Z,11.27
2018-10-19T17:50:28.981Z,8.67
2018-10-19T17:52:58.953Z,9.27
2018-10-19T17:55:28.889Z,9.33
2018-10-19T17:57:59.093Z,9.10
2018-10-19T18:00:29.054Z,11.30
2018-10-19T18:02:58.967Z,9.07
2018-10-19T18:05:28.899Z,15.40
2018-10-19T18:07:58.877Z,13.87
2018-10-19T18:10:29.121Z,13.53
2018-10-19T18:12:59.074Z,5.90
2018-10-19T18:15:29.044Z,13.23
2018-10-19T18:17:58.929Z,10.87
2018-10-19T18:20:28.881Z,7.10
2018-10-19T18:22:58.913Z,9.78
2018-10-19T18:25:28.809Z,9.00
2018-10-19T18:27:58.775Z,9.70
2018-10-19T18:30:28.693Z,12.90
2018-10-19T18:32:58.621Z,12.65
2018-10-19T18:35:28.633Z,9.98
2018-10-19T18:37:58.549Z,13.72
2018-10-19T18:40:28.470Z,11.57
2018-10-19T18:42:58.365Z,14.73
2018-10-19T18:45:28.485Z,11.47
2018-10-19T18:47:58.370Z,13.70
2018-10-19T18:50:28.376Z,13.43
2018-10-19T18:52:58.293Z,16.00
2018-10-19T18:55:28.146Z,11.20
2018-10-19T18:57:58.150Z,13.72
2018-10-19T19:00:28.173Z,17.05
2018-10-19T19:02:58.099Z,10.75
2018-10-19T19:05:28.110Z,23.73
2018-10-19T19:07:58.025Z,20.55
2018-10-19T19:10:28.007Z,27.60
2018-10-19T19:13:03.498Z,15.00
2018-10-19T19:15:33.385Z,20.08
2018-10-19T19:18:03.394Z,23.38
2018-10-19T19:20:33.347Z,42.00
2018-10-19T19:23:03.353Z,45.35
2018-10-19T19:25:38.517Z,63.55
2018-10-19T19:28:08.464Z,53.68
2018-10-19T19:30:38.406Z,56.35
2018-10-19T19:33:13.789Z,42.65
2018-10-19T19:35:43.758Z,41.80
2018-10-19T19:38:13.721Z,22.90
2018-10-19T19:41:51.609Z,20.77
2018-10-19T19:44:21.602Z,20.48
2018-10-19T19:46:51.843Z,22.40
2018-10-19T19:49:27.409Z,26.97
2018-10-19T19:51:57.345Z,19.10
2018-10-19T19:54:27.289Z,17.65
2018-10-19T19:56:57.241Z,20.05
2018-10-19T19:59:27.142Z,15.95
2018-10-19T20:01:57.028Z,20.70
2018-10-19T20:04:26.999Z,14.30
2018-10-19T20:06:56.909Z,13.60
2018-10-19T20:09:26.833Z,13.03
2018-10-19T20:11:56.743Z,22.37
2018-10-19T20:14:26.781Z,26.05
2018-10-19T20:16:56.741Z,23.00
2018-10-19T20:19:26.600Z,19.87
2018-10-19T20:21:56.757Z,27.27
2018-10-19T20:24:26.724Z,22.98
2018-10-19T20:26:56.690Z,20.10
2018-10-19T20:29:26.622Z,14.65
2018-10-19T20:31:56.557Z,12.15
2018-10-19T20:34:26.446Z,15.70
2018-10-19T20:36:56.383Z,15.40
2018-10-19T20:39:26.355Z,18.82
2018-10-19T20:41:56.306Z,14.63
2018-10-19T20:44:26.269Z,15.80
2018-10-19T20:46:56.233Z,12.80
2018-10-19T20:49:26.175Z,21.77
2018-10-19T20:51:56.073Z,13.10
2018-10-19T20:54:26.044Z,20.65
2018-10-19T20:56:56.075Z,18.55
2018-10-19T20:59:26.020Z,11.93
2018-10-19T21:02:02.306Z,13.58
2018-10-19T21:04:32.226Z,22.37
2018-10-19T21:07:02.199Z,23.95
2018-10-19T21:09:32.207Z,12.05
2018-10-19T21:12:02.105Z,17.95
2018-10-19T21:14:32.139Z,17.42
2018-10-19T21:17:02.376Z,22.17
2018-10-19T21:19:32.298Z,16.80
2018-10-19T21:22:02.133Z,22.35
2018-10-19T21:24:32.130Z,22.07
2018-10-19T21:27:02.106Z,29.05
2018-10-19T21:29:32.207Z,26.65
2018-10-19T21:32:02.171Z,25.20
2018-10-19T21:34:32.062Z,28.23
2018-10-19T21:37:01.985Z,27.40
2018-10-19T21:39:31.961Z,25.80
2018-10-19T21:42:02.113Z,23.22
2018-10-19T21:44:32.101Z,28.00
2018-10-19T21:47:02.037Z,17.73
2018-10-19T21:49:31.981Z,23.35
2018-10-19T21:52:01.897Z,23.35
2018-10-19T21:54:31.795Z,22.32
2018-10-19T21:57:01.743Z,20.15
2018-10-19T21:59:31.649Z,21.70
2018-10-19T22:02:01.692Z,25.17
2018-10-19T22:04:31.602Z,14.50
2018-10-19T22:07:01.550Z,15.95
2018-10-19T22:09:31.445Z,16.82
2018-10-19T22:12:01.490Z,18.70
2018-10-19T22:14:31.385Z,21.70
2018-10-19T22:17:01.521Z,23.67
2018-10-19T22:19:31.392Z,25.27
2018-10-19T22:22:01.340Z,21.37
2018-10-19T22:24:31.246Z,19.02
2018-10-19T22:27:01.215Z,26.80
2018-10-19T22:29:31.449Z,32.88
2018-10-19T22:32:01.369Z,26.05
2018-10-19T22:34:31.458Z,25.55
2018-10-19T22:37:01.460Z,28.77
2018-10-19T22:39:31.317Z,24.82
2018-10-19T22:42:01.326Z,32.03
2018-10-19T22:44:31.304Z,23.92
2018-10-19T22:47:01.352Z,21.73
2018-10-19T22:49:31.327Z,26.73
2018-10-19T22:52:01.302Z,24.32
2018-10-19T22:54:31.325Z,23.62
2018-10-19T22:57:01.221Z,28.20
2018-10-19T22:59:31.170Z,27.73
2018-10-19T23:02:01.464Z,19.07
2018-10-19T23:04:31.389Z,18.75
2018-10-19T23:07:01.341Z,14.05
2018-10-19T23:09:31.566Z,17.67
2018-10-19T23:12:01.397Z,24.95
2018-10-19T23:14:31.325Z,15.72
2018-10-19T23:17:01.472Z,21.68
2018-10-19T23:19:31.657Z,21.77
2018-10-19T23:22:01.598Z,21.10
2018-10-19T23:24:31.534Z,17.80
2018-10-19T23:27:01.438Z,15.23
2018-10-19T23:29:31.565Z,17.23
2018-10-19T23:32:01.485Z,15.15
2018-10-19T23:34:31.397Z,21.68
2018-10-19T23:37:01.433Z,32.10
2018-10-19T23:39:31.366Z,14.15
2018-10-19T23:42:01.440Z,21.05
2018-10-19T23:44:31.485Z,13.80
2018-10-19T23:47:01.423Z,20.02
2018-10-19T23:49:31.365Z,14.00
2018-10-19T23:52:01.267Z,18.98
2018-10-19T23:54:31.185Z,16.85
2018-10-19T23:57:01.056Z,22.37
2018-10-19T23:59:30.992Z,18.05
